Time;durP1;ratioP1;P1;durP2;ratioP2;P2;SDS_P1;SDS_P2;PMS_P1;PMS_P2;Temp;Humidity;BMP_temperature;BMP_pressure;BME280_temperature;BME280_humidity;BME280_pressure;Samples;Min_cycle;Max_cycle;Signal;HPM_P1;HPM_P2
2022/08/02 00:00:11;;;;;;;3.40;1.80;;;;;;;16.40;83.24;94241.56;5010067;28;20045;-61
2022/08/02 00:02:37;;;;;;;3.58;1.63;;;;;;;16.42;82.80;94241.88;5017587;28;20739;-64
2022/08/02 00:05:05;;;;;;;3.85;1.90;;;;;;;16.38;82.99;94236.47;5009934;28;20049;-62
2022/08/02 00:07:32;;;;;;;3.33;1.60;;;;;;;16.31;83.13;94235.91;5009780;28;20042;-62
2022/08/02 00:10:08;;;;;;;4.13;1.95;;;;;;;16.27;83.54;94233.25;5009060;28;21537;-62
2022/08/02 00:12:35;;;;;;;3.70;1.63;;;;;;;16.27;83.47;94238.78;5009368;28;20050;-60
2022/08/02 00:15:03;;;;;;;3.65;1.98;;;;;;;16.14;84.06;94238.81;5009764;28;20042;-64
2022/08/02 00:17:30;;;;;;;4.90;1.95;;;;;;;15.70;86.19;94235.78;5041091;28;20414;-62
2022/08/02 00:19:56;;;;;;;3.85;1.98;;;;;;;15.62;86.43;94225.38;5008975;28;20195;-62
2022/08/02 00:22:23;;;;;;;3.20;1.83;;;;;;;15.71;86.13;94228.22;5009980;28;20406;-65
2022/08/02 00:24:49;;;;;;;3.40;2.00;;;;;;;15.72;86.44;94238.91;5008923;28;20052;-61
2022/08/02 00:27:16;;;;;;;3.70;2.17;;;;;;;15.75;86.27;94226.97;4994197;28;20054;-61
2022/08/02 00:29:43;;;;;;;3.75;1.95;;;;;;;15.73;86.07;94229.38;5008975;28;20049;-63
2022/08/02 00:32:19;;;;;;;3.97;1.88;;;;;;;15.75;85.63;94224.19;5009742;28;20414;-62
2022/08/02 00:34:46;;;;;;;3.67;1.85;;;;;;;15.73;84.92;94223.84;5008153;28;20064;-66
2022/08/02 00:37:13;;;;;;;3.97;2.10;;;;;;;15.66;85.24;94221.28;5010192;28;20050;-62
2022/08/02 00:39:41;;;;;;;3.90;2.00;;;;;;;15.63;84.96;94219.38;5008775;28;20057;-61
2022/08/02 00:42:09;;;;;;;4.97;3.08;;;;;;;15.58;84.58;94215.16;5008343;28;20048;-61
2022/08/02 00:44:36;;;;;;;4.18;2.40;;;;;;;15.59;84.50;94215.94;5009134;28;20052;-61
2022/08/02 00:47:04;;;;;;;3.50;2.00;;;;;;;15.58;84.08;94220.69;5012504;28;20038;-61
2022/08/02 00:49:30;;;;;;;4.30;1.63;;;;;;;15.56;83.92;94209.31;5013009;28;20041;-62
2022/08/02 00:51:59;;;;;;;3.33;1.88;;;;;;;15.54;83.76;94214.50;5012325;28;20395;-66
2022/08/02 00:54:26;;;;;;;3.47;1.75;;;;;;;15.53;83.80;94209.41;5012852;28;20038;-64
2022/08/02 00:56:53;;;;;;;3.85;1.90;;;;;;;15.52;83.57;94207.88;5012252;28;20393;-63
2022/08/02 00:59:20;;;;;;;3.72;1.90;;;;;;;15.47;83.44;94209.16;5012841;28;20057;-65
2022/08/02 01:01:46;;;;;;;5.63;1.60;;;;;;;15.37;83.79;94208.28;5014722;28;20049;-62
2022/08/02 01:04:26;;;;;;;4.03;2.03;;;;;;;15.26;85.58;94209.81;5020865;28;20048;-62
2022/08/02 01:07:05;;;;;;;3.42;2.05;;;;;;;15.12;86.57;94205.44;5012037;28;20046;-62
2022/08/02 01:09:43;;;;;;;3.50;1.85;;;;;;;15.16;86.40;94195.84;5012232;28;20434;-62
2022/08/02 01:12:11;;;;;;;3.65;1.80;;;;;;;15.15;85.83;94199.03;5003965;28;20376;-62
2022/08/02 01:14:44;;;;;;;5.93;2.00;;;;;;;15.14;85.94;94195.50;5006425;28;20076;-68
2022/08/02 01:17:27;;;;;;;3.42;1.80;;;;;;;15.16;85.64;94195.06;5012628;28;20660;-63
2022/08/02 01:19:54;;;;;;;18.70;12.15;;;;;;;15.13;85.56;94196.72;5011935;28;20467;-65
2022/08/02 01:22:39;;;;;;;24.63;15.27;;;;;;;15.13;85.56;94190.41;5011245;28;20050;-62
2022/08/02 01:25:44;;;;;;;7.15;3.38;;;;;;;15.14;85.66;94194.72;5011563;28;20050;-62
2022/08/02 01:28:32;;;;;;;4.83;2.90;;;;;;;15.12;85.66;94197.16;5011341;28;20046;-63
2022/08/02 01:31:20;;;;;;;3.53;2.00;;;;;;;15.05;85.50;94197.34;5003819;28;20030;-63
2022/08/02 01:34:10;;;;;;;3.60;1.83;;;;;;;14.82;86.76;94192.84;5009577;28;20476;-62
2022/08/02 01:36:41;;;;;;;3.88;2.00;;;;;;;14.73;87.30;94183.22;5012592;28;20388;-63
2022/08/02 01:39:13;;;;;;;4.95;1.77;;;;;;;14.78;87.27;94190.19;4993358;28;20039;-62
2022/08/02 01:41:59;;;;;;;4.50;1.90;;;;;;;14.75;87.29;94191.84;5004853;28;20441;-61
2022/08/02 01:44:30;;;;;;;4.00;2.30;;;;;;;14.69;87.50;94195.56;4998715;28;20076;-64
2022/08/02 01:47:00;;;;;;;3.53;2.20;;;;;;;14.65;88.17;94186.59;5011446;28;20117;-62
2022/08/02 01:49:29;;;;;;;5.20;2.15;;;;;;;14.61;88.07;94194.19;5010727;28;20501;-62
2022/08/02 01:54:47;;;;;;;4.10;2.23;;;;;;;14.51;88.69;94188.50;5011210;28;20058;-66
2022/08/02 01:57:16;;;;;;;3.35;1.95;;;;;;;14.38;89.01;94193.16;5011288;28;20080;-67
2022/08/02 01:59:45;;;;;;;3.80;2.17;;;;;;;14.44;88.82;94185.91;5011284;28;20048;-64
2022/08/02 02:02:14;;;;;;;4.60;2.10;;;;;;;14.46;88.62;94185.47;5017986;28;20041;-63
2022/08/02 02:04:43;;;;;;;4.05;2.15;;;;;;;14.52;88.31;94183.75;5013590;28;20389;-64
2022/08/02 02:07:14;;;;;;;5.07;2.10;;;;;;;14.46;87.77;94182.72;5011857;28;20048;-62
2022/08/02 02:09:43;;;;;;;4.40;2.30;;;;;;;14.49;87.78;94190.91;4997442;28;20403;-62
2022/08/02 02:12:18;;;;;;;7.90;3.72;;;;;;;14.51;87.83;94187.72;5011572;28;20607;-62
2022/08/02 02:14:47;;;;;;;4.60;3.00;;;;;;;14.49;87.69;94190.91;5010478;28;20052;-62
2022/08/02 02:17:20;;;;;;;5.40;3.00;;;;;;;14.51;87.98;94179.44;5011609;28;20556;-63
2022/08/02 02:20:08;;;;;;;4.20;2.20;;;;;;;14.45;87.45;94183.94;5010244;28;20645;-62
2022/08/02 02:22:35;;;;;;;5.75;2.33;;;;;;;14.40;87.32;94179.72;5010859;28;20050;-65
2022/08/02 02:25:02;;;;;;;3.65;2.05;;;;;;;14.38;87.58;94174.59;5011187;28;20054;-64
2022/08/02 02:27:34;;;;;;;5.13;2.35;;;;;;;14.39;87.67;94167.13;5011208;28;20045;-63
2022/08/02 02:30:06;;;;;;;3.67;2.30;;;;;;;14.37;87.13;94170.31;5007700;28;20458;-63
2022/08/02 02:32:34;;;;;;;3.73;2.03;;;;;;;14.32;86.83;94167.28;5008809;28;20056;-62
2022/08/02 02:35:04;;;;;;;3.72;1.90;;;;;;;14.30;86.70;94172.47;5015475;28;20291;-62
2022/08/02 02:37:32;;;;;;;3.60;1.90;;;;;;;14.29;86.63;94176.47;5011108;28;20044;-62
2022/08/02 02:40:00;;;;;;;3.42;1.80;;;;;;;14.20;86.99;94174.28;5010207;28;20052;-67
2022/08/02 02:42:30;;;;;;;3.17;1.90;;;;;;;14.20;86.32;94171.53;4997103;28;20045;-62
2022/08/02 02:44:59;;;;;;;3.40;1.90;;;;;;;14.11;86.56;94177.66;5010282;28;20447;-62
2022/08/02 02:47:28;;;;;;;3.33;1.80;;;;;;;14.11;86.42;94179.66;5010604;28;20060;-61
2022/08/02 02:50:09;;;;;;;4.03;1.90;;;;;;;14.10;86.41;94178.09;5009812;28;20790;-62
2022/08/02 02:52:38;;;;;;;3.25;1.80;;;;;;;14.09;86.15;94174.56;5010356;28;20057;-62
2022/08/02 02:55:07;;;;;;;4.25;1.75;;;;;;;13.97;86.64;94176.03;5010493;28;20042;-62
2022/08/02 02:57:35;;;;;;;3.60;1.80;;;;;;;13.99;87.09;94172.84;4996504;28;20042;-61
2022/08/02 03:00:10;;;;;;;5.65;2.35;;;;;;;13.97;87.94;94170.50;5008575;28;20052;-65
2022/08/02 03:02:39;;;;;;;7.15;2.90;;;;;;;13.96;89.41;94160.69;5019841;28;20045;-65
2022/08/02 03:05:07;;;;;;;9.50;2.58;;;;;;;14.03;88.92;94164.50;5013400;28;20037;-65
2022/08/02 03:07:35;;;;;;;32.65;3.22;;;;;;;14.04;90.17;94166.03;5010003;28;20049;-61
2022/08/02 03:10:04;;;;;;;31.10;3.20;;;;;;;13.87;92.99;94162.50;5009028;28;20825;-61
2022/08/02 03:12:32;;;;;;;28.20;3.47;;;;;;;13.91;93.31;94152.94;4997034;28;20449;-63
2022/08/02 03:15:03;;;;;;;19.30;3.10;;;;;;;13.95;92.98;94159.13;5009359;28;20072;-61
2022/08/02 03:17:44;;;;;;;8.35;2.95;;;;;;;13.95;93.07;94156.38;5010347;28;20046;-62
2022/08/02 03:20:16;;;;;;;25.38;2.97;;;;;;;13.88;92.42;94159.28;5009086;28;20900;-61
2022/08/02 03:22:44;;;;;;;9.27;2.90;;;;;;;13.97;92.61;94161.47;5009999;28;20053;-62
2022/08/02 03:25:12;;;;;;;13.68;3.17;;;;;;;14.10;91.80;94164.28;5009957;28;20068;-63
2022/08/02 03:27:39;;;;;;;10.70;3.08;;;;;;;14.13;92.01;94158.69;5009557;28;20396;-65
2022/08/02 03:30:09;;;;;;;22.42;3.50;;;;;;;14.19;92.40;94161.72;5009749;28;20042;-62
2022/08/02 03:32:38;;;;;;;14.02;3.28;;;;;;;14.07;93.78;94162.41;5009693;28;20056;-60
2022/08/02 03:35:08;;;;;;;23.37;3.63;;;;;;;14.07;94.34;94159.66;5021119;28;20045;-62
2022/08/02 03:37:36;;;;;;;14.85;3.65;;;;;;;14.11;94.45;94163.88;5009605;28;20042;-60
2022/08/02 03:40:07;;;;;;;34.30;3.63;;;;;;;14.13;94.35;94161.44;5009881;28;20046;-61
2022/08/02 03:42:33;;;;;;;6.82;3.70;;;;;;;14.07;94.54;94162.41;5010072;28;20442;-64
2022/08/02 03:45:02;;;;;;;8.02;3.70;;;;;;;14.10;94.50;94167.81;5009093;28;20875;-62
2022/08/02 03:47:36;;;;;;;90.97;4.90;;;;;;;13.89;94.19;94160.84;5009822;28;20049;-62
2022/08/02 03:50:04;;;;;;;43.70;4.00;;;;;;;13.50;96.96;94162.56;4998622;28;21795;-61
2022/08/02 03:52:32;;;;;;;37.22;5.05;;;;;;;13.58;98.87;94161.19;5005530;28;20046;-61
2022/08/02 03:54:59;;;;;;;30.38;4.75;;;;;;;13.71;98.32;94160.50;5010209;28;20048;-61
2022/08/02 03:57:26;;;;;;;26.95;3.90;;;;;;;13.78;97.81;94161.13;5010245;28;20049;-62
2022/08/02 03:59:53;;;;;;;19.30;3.50;;;;;;;13.73;97.33;94161.63;5009060;28;20054;-66
2022/08/02 04:02:19;;;;;;;19.55;3.50;;;;;;;13.75;96.44;94167.50;5017181;28;20051;-64
2022/08/02 04:04:46;;;;;;;16.10;3.80;;;;;;;13.73;94.97;94163.63;5009261;28;20441;-61
2022/08/02 04:07:13;;;;;;;11.32;3.63;;;;;;;13.68;94.54;94164.91;5009697;28;20045;-62
2022/08/02 04:09:59;;;;;;;6.07;3.33;;;;;;;13.73;94.77;94163.63;5008565;28;20656;-61
2022/08/02 04:12:26;;;;;;;9.23;3.13;;;;;;;13.76;94.63;94163.53;5009755;28;20061;-62
2022/08/02 04:14:53;;;;;;;22.30;3.70;;;;;;;13.86;94.22;94160.94;5009100;28;20048;-62
2022/08/02 04:17:22;;;;;;;9.35;3.60;;;;;;;13.89;94.39;94166.38;5009839;28;20076;-62
2022/08/02 04:20:04;;;;;;;6.10;3.15;;;;;;;13.93;93.28;94166.28;5010745;28;20112;-61
2022/08/02 04:22:39;;;;;;;11.55;3.30;;;;;;;13.94;92.58;94162.31;5013611;28;20038;-61
2022/08/02 04:25:07;;;;;;;6.03;3.03;;;;;;;13.96;91.92;94168.97;5012154;28;20896;-62
2022/08/02 04:27:43;;;;;;;5.82;3.08;;;;;;;14.03;91.07;94170.00;5012734;28;20050;-63
2022/08/02 04:30:31;;;;;;;5.70;3.00;;;;;;;14.00;90.65;94163.34;5013336;28;20053;-65
2022/08/02 04:32:58;;;;;;;6.15;2.95;;;;;;;14.05;89.96;94168.34;5012385;28;20052;-65
2022/08/02 04:35:25;;;;;;;5.22;2.90;;;;;;;14.06;89.64;94169.13;5027068;28;20042;-61
2022/08/02 04:37:52;;;;;;;4.30;2.60;;;;;;;14.13;88.86;94180.78;5012874;28;20052;-61
2022/08/02 04:40:36;;;;;;;5.40;2.50;;;;;;;14.26;87.60;94191.88;5012829;28;20042;-61
2022/08/02 04:43:03;;;;;;;6.57;3.78;;;;;;;14.29;88.06;94184.75;5012825;28;20065;-62
2022/08/02 04:45:30;;;;;;;9.82;3.85;;;;;;;14.35;88.23;94185.78;5013121;28;20685;-64
2022/08/02 04:47:56;;;;;;;9.00;3.70;;;;;;;14.46;87.45;94188.25;5029712;28;20042;-62
2022/08/02 04:50:32;;;;;;;9.23;3.70;;;;;;;14.43;86.85;94180.81;5011744;28;20042;-61
2022/08/02 04:52:59;;;;;;;6.75;3.40;;;;;;;14.52;86.51;94186.50;5007943;28;20046;-62
2022/08/02 04:55:27;;;;;;;8.55;4.60;;;;;;;14.47;86.00;94187.81;5012854;28;20056;-61
2022/08/02 04:57:56;;;;;;;9.10;4.20;;;;;;;14.45;86.61;94192.22;5011902;28;20446;-64
2022/08/02 05:00:24;;;;;;;7.30;3.70;;;;;;;14.44;85.65;94191.44;5012694;28;20457;-65
2022/08/02 05:02:51;;;;;;;7.97;3.27;;;;;;;14.39;85.88;94189.97;5018887;28;20194;-63
2022/08/02 05:05:18;;;;;;;6.85;3.10;;;;;;;14.16;86.60;94193.69;5012067;28;20050;-62
2022/08/02 05:07:45;;;;;;;12.68;2.97;;;;;;;14.21;86.71;94197.94;5012047;28;20042;-63
2022/08/02 05:10:12;;;;;;;5.05;2.97;;;;;;;14.29;86.58;94195.78;5012113;28;20054;-64
2022/08/02 05:12:39;;;;;;;4.20;2.72;;;;;;;14.52;85.39;94200.31;5011980;28;20427;-62
2022/08/02 05:15:07;;;;;;;4.50;2.60;;;;;;;14.46;84.43;94193.78;5012264;28;20038;-62
2022/08/02 05:17:39;;;;;;;5.43;2.95;;;;;;;14.49;84.72;94195.69;5011961;28;20053;-62
2022/08/02 05:20:17;;;;;;;4.47;2.50;;;;;;;14.82;83.65;94193.63;5012195;28;20054;-63
2022/08/02 05:22:45;;;;;;;3.80;2.33;;;;;;;15.01;83.34;94191.94;5012041;28;20410;-63
2022/08/02 05:25:12;;;;;;;4.85;2.10;;;;;;;15.23;82.36;94197.66;5012022;28;20052;-62
2022/08/02 05:27:39;;;;;;;3.63;2.37;;;;;;;15.37;82.13;94205.53;5011654;28;20053;-62
2022/08/02 05:30:06;;;;;;;4.18;2.30;;;;;;;15.47;82.29;94198.09;5011512;28;20046;-65
2022/08/02 05:32:34;;;;;;;3.78;2.25;;;;;;;15.78;80.79;94181.03;5010849;28;20038;-63
2022/08/02 05:35:01;;;;;;;3.47;2.10;;;;;;;15.81;81.24;94190.41;5012800;28;20217;-63
2022/08/02 05:37:28;;;;;;;3.50;2.20;;;;;;;15.66;81.04;94190.06;5011545;28;20038;-64
2022/08/02 05:39:58;;;;;;;3.83;2.50;;;;;;;15.86;80.85;94187.88;5011081;28;20050;-64
2022/08/02 05:42:30;;;;;;;4.97;2.40;;;;;;;16.24;79.41;94178.75;5011890;28;20069;-65
2022/08/02 05:44:57;;;;;;;4.55;2.55;;;;;;;16.32;78.64;94188.38;5011522;28;20045;-69
2022/08/02 05:47:24;;;;;;;4.20;2.60;;;;;;;16.39;78.96;94184.59;5011744;28;20052;-62
2022/08/02 05:49:51;;;;;;;4.40;3.00;;;;;;;16.72;78.12;94182.28;5011293;28;20034;-63
2022/08/02 05:52:19;;;;;;;4.00;2.57;;;;;;;17.30;75.81;94180.25;5011370;28;20069;-61
2022/08/02 05:55:08;;;;;;;4.40;2.70;;;;;;;17.83;74.50;94190.56;5011360;28;20046;-61
2022/08/02 05:57:39;;;;;;;4.63;2.55;;;;;;;18.49;72.11;94177.22;5011229;28;20046;-64
2022/08/02 06:00:14;;;;;;;4.90;2.92;;;;;;;18.47;71.54;94170.56;4994450;28;20042;-63
2022/08/02 06:03:03;;;;;;;4.43;3.00;;;;;;;19.64;67.99;94180.59;5019375;28;20069;-62
2022/08/02 06:05:39;;;;;;;4.57;3.10;;;;;;;19.25;68.74;94182.34;5011543;28;20080;-65
2022/08/02 06:08:09;;;;;;;4.97;3.10;;;;;;;18.45;71.95;94184.94;5007435;28;20754;-65
2022/08/02 06:10:37;;;;;;;4.10;2.80;;;;;;;18.75;70.74;94188.84;5001949;28;20056;-65
2022/08/02 06:13:15;;;;;;;4.85;2.80;;;;;;;19.04;70.06;94184.84;5012035;28;20103;-66
2022/08/02 06:15:42;;;;;;;4.13;3.00;;;;;;;19.29;69.07;94183.72;5011197;28;20041;-63
2022/08/02 06:18:20;;;;;;;4.40;2.87;;;;;;;19.11;69.69;94181.75;5011212;28;20045;-63
2022/08/02 06:20:57;;;;;;;3.97;2.70;;;;;;;21.05;64.01;94172.59;4997889;28;20403;-66
2022/08/02 06:23:46;;;;;;;4.10;2.67;;;;;;;22.53;58.55;94168.94;5010851;28;20058;-66
2022/08/02 06:26:28;;;;;;;3.65;2.42;;;;;;;22.96;56.63;94173.31;4999281;28;20450;-62
2022/08/02 06:28:56;;;;;;;3.53;2.38;;;;;;;23.35;55.09;94167.41;5010622;28;20056;-62
2022/08/02 06:31:23;;;;;;;3.20;2.30;;;;;;;24.69;51.96;94164.19;5010916;28;20038;-62
2022/08/02 06:33:50;;;;;;;3.50;2.10;;;;;;;27.04;46.50;94167.69;5014652;28;20064;-63
2022/08/02 06:36:41;;;;;;;4.13;2.42;;;;;;;26.79;45.59;94172.41;5010673;28;20046;-64
2022/08/02 06:39:25;;;;;;;3.22;2.00;;;;;;;28.27;42.60;94165.47;4994773;28;20050;-66
2022/08/02 06:41:57;;;;;;;3.00;2.17;;;;;;;28.23;42.58;94169.84;5010599;28;20037;-63
2022/08/02 06:44:24;;;;;;;2.80;1.90;;;;;;;27.71;43.00;94160.22;5009580;28;20049;-64
2022/08/02 06:47:10;;;;;;;3.67;2.10;;;;;;;29.15;40.01;94160.72;5009991;28;20054;-63
2022/08/02 06:49:42;;;;;;;3.22;2.00;;;;;;;30.18;38.49;94163.66;5010494;28;20115;-62
2022/08/02 06:52:19;;;;;;;3.95;1.92;;;;;;;30.39;37.44;94158.22;5010407;28;20050;-66
2022/08/02 06:54:52;;;;;;;3.40;2.30;;;;;;;29.81;38.26;94166.03;5010007;28;20048;-62
2022/08/02 06:57:19;;;;;;;3.27;2.03;;;;;;;32.06;35.20;94173.75;5010317;28;20068;-66
2022/08/02 06:59:45;;;;;;;3.00;1.98;;;;;;;31.40;34.77;94169.72;5008930;28;20430;-63
2022/08/02 07:02:12;;;;;;;3.25;1.90;;;;;;;32.28;34.12;94176.03;5016327;28;20045;-63
2022/08/02 07:04:39;;;;;;;3.38;1.98;;;;;;;32.93;32.82;94166.91;5018528;28;20061;-65
2022/08/02 07:07:06;;;;;;;2.80;1.77;;;;;;;33.60;32.13;94176.38;5010306;28;20048;-63
2022/08/02 07:09:33;;;;;;;3.00;1.70;;;;;;;34.62;30.27;94176.09;5008624;28;20049;-64
2022/08/02 07:11:59;;;;;;;4.28;1.80;;;;;;;34.79;29.73;94173.47;5010455;28;20089;-67
2022/08/02 07:14:26;;;;;;;2.70;1.77;;;;;;;35.35;29.07;94167.84;5011208;28;20042;-64
2022/08/02 07:16:53;;;;;;;3.15;1.92;;;;;;;35.31;28.74;94169.59;5010065;28;20399;-64
2022/08/02 07:19:19;;;;;;;3.97;2.42;;;;;;;35.97;28.14;94156.22;5008855;28;20042;-63
2022/08/02 07:21:47;;;;;;;3.53;1.60;;;;;;;35.24;29.22;94161.81;5009918;28;20046;-63
2022/08/02 07:24:24;;;;;;;8.88;1.95;;;;;;;36.44;27.13;94157.44;5010057;28;20457;-64
2022/08/02 07:26:51;;;;;;;3.55;1.80;;;;;;;35.31;28.28;94166.75;5009949;28;20398;-63
2022/08/02 07:29:36;;;;;;;2.92;1.70;;;;;;;35.43;28.13;94158.53;5008649;28;20046;-63
2022/08/02 07:32:22;;;;;;;2.50;1.63;;;;;;;36.88;26.75;94162.66;5009909;28;20085;-65
2022/08/02 07:34:49;;;;;;;3.70;1.60;;;;;;;38.11;24.75;94166.31;5020117;28;20049;-63
2022/08/02 07:37:26;;;;;;;6.03;2.10;;;;;;;38.96;24.30;94163.69;5003230;28;20048;-65
2022/08/02 07:40:13;;;;;;;4.32;1.60;;;;;;;38.24;24.00;94174.53;5004075;28;21431;-63
2022/08/02 07:42:51;;;;;;;3.65;1.67;;;;;;;38.53;24.42;94179.66;5009785;28;20058;-63
2022/08/02 07:45:23;;;;;;;4.88;1.65;;;;;;;38.66;24.57;94172.81;5009778;28;20041;-67
2022/08/02 07:47:51;;;;;;;3.40;1.70;;;;;;;37.92;24.70;94172.66;5009543;28;20049;-64
2022/08/02 07:50:19;;;;;;;3.25;1.52;;;;;;;39.42;22.58;94167.09;5009781;28;20046;-63
2022/08/02 07:52:46;;;;;;;2.50;1.52;;;;;;;38.53;23.46;94171.81;5009536;28;20487;-67
2022/08/02 07:55:16;;;;;;;3.75;1.40;;;;;;;34.59;27.17;94169.44;5012136;28;20045;-64
2022/08/02 07:57:44;;;;;;;4.57;1.80;;;;;;;33.79;27.55;94170.41;5013632;28;20050;-64
2022/08/02 08:00:14;;;;;;;3.53;1.70;;;;;;;33.41;28.75;94165.31;5013941;28;20050;-64
2022/08/02 08:02:42;;;;;;;3.38;1.80;;;;;;;29.33;35.84;94172.59;5023351;28;20045;-64
2022/08/02 08:05:09;;;;;;;3.15;1.67;;;;;;;33.99;28.82;94165.94;5013803;28;20048;-67
2022/08/02 08:07:36;;;;;;;3.20;1.70;;;;;;;32.18;30.76;94163.63;5013674;28;20056;-62
2022/08/02 08:10:05;;;;;;;2.97;1.70;;;;;;;30.97;33.72;94165.94;5014022;28;20042;-63
2022/08/02 08:12:32;;;;;;;3.30;1.90;;;;;;;30.75;34.66;94166.34;5013527;28;20054;-63
2022/08/02 08:14:59;;;;;;;3.05;2.00;;;;;;;30.58;35.21;94158.88;5013271;28;20041;-63
2022/08/02 08:17:26;;;;;;;3.30;1.90;;;;;;;32.30;33.27;94158.41;5028862;28;20058;-63
2022/08/02 08:19:52;;;;;;;5.80;2.10;;;;;;;31.75;32.47;94159.16;5011370;28;20041;-66
2022/08/02 08:22:19;;;;;;;5.05;2.20;;;;;;;31.94;31.15;94161.84;5014084;28;20477;-65
2022/08/02 08:24:47;;;;;;;3.00;2.10;;;;;;;31.80;30.97;94161.88;5013177;28;20380;-67
2022/08/02 08:27:16;;;;;;;3.33;2.03;;;;;;;30.10;33.62;94163.53;5013029;28;20143;-63
2022/08/02 08:29:43;;;;;;;3.65;2.22;;;;;;;26.63;41.36;94165.53;4999211;28;20034;-63
2022/08/02 08:32:12;;;;;;;3.38;2.13;;;;;;;27.56;39.92;94165.44;5012769;28;20076;-63
2022/08/02 08:34:47;;;;;;;3.58;2.30;;;;;;;32.42;30.81;94163.28;5021194;28;20044;-64
2022/08/02 08:37:14;;;;;;;3.03;2.10;;;;;;;33.60;29.11;94173.53;5012562;28;20445;-64
2022/08/02 08:39:48;;;;;;;4.88;1.98;;;;;;;33.68;28.49;94167.16;5012357;28;20042;-63
2022/08/02 08:42:29;;;;;;;2.92;2.00;;;;;;;32.38;30.34;94162.09;5012973;28;20469;-62
2022/08/02 08:44:56;;;;;;;3.65;2.80;;;;;;;33.35;29.34;94161.88;5011806;28;20052;-65
2022/08/02 08:47:33;;;;;;;3.28;2.05;;;;;;;31.50;32.02;94159.47;5012754;28;20114;-67
2022/08/02 08:50:03;;;;;;;4.20;2.20;;;;;;;29.68;34.74;94172.38;5011992;28;20748;-66
2022/08/02 08:52:35;;;;;;;3.40;2.30;;;;;;;29.24;35.01;94171.69;5012342;28;20043;-63
2022/08/02 08:55:04;;;;;;;3.88;2.50;;;;;;;28.20;36.85;94165.28;5011908;28;21198;-63
2022/08/02 08:57:34;;;;;;;4.75;2.30;;;;;;;29.82;33.74;94170.41;5012301;28;20072;-64
2022/08/02 09:00:01;;;;;;;3.15;2.30;;;;;;;30.79;33.22;94163.94;5011990;28;21515;-63
2022/08/02 09:02:28;;;;;;;4.87;2.10;;;;;;;31.12;32.26;94159.69;5013995;28;20391;-63
2022/08/02 09:04:55;;;;;;;3.90;2.20;;;;;;;26.62;40.16;94161.22;5012425;28;20050;-65
2022/08/02 09:07:22;;;;;;;4.13;2.30;;;;;;;31.04;33.58;94161.66;5011183;28;20502;-64
2022/08/02 09:09:49;;;;;;;4.28;2.13;;;;;;;32.25;31.75;94157.25;5012054;28;20050;-64
2022/08/02 09:12:18;;;;;;;4.13;2.35;;;;;;;33.80;27.89;94148.41;5012263;28;20045;-63
2022/08/02 09:14:48;;;;;;;3.57;2.03;;;;;;;34.68;27.69;94151.03;5012120;28;20048;-67
2022/08/02 09:17:17;;;;;;;4.05;2.50;;;;;;;27.94;38.45;94160.09;5012711;28;20041;-64
2022/08/02 09:19:46;;;;;;;3.00;2.15;;;;;;;27.55;39.16;94155.44;5009418;28;20430;-63
2022/08/02 09:22:13;;;;;;;6.03;2.30;;;;;;;26.72;40.94;94158.84;5013094;28;20042;-66
2022/08/02 09:24:47;;;;;;;3.50;2.63;;;;;;;29.14;36.39;94150.75;5011991;28;20418;-62
2022/08/02 09:27:21;;;;;;;4.07;2.20;;;;;;;31.44;33.02;94147.44;5012034;28;20052;-63
2022/08/02 09:29:50;;;;;;;3.13;2.08;;;;;;;34.11;28.48;94146.41;5011804;28;20064;-66
2022/08/02 09:32:48;;;;;;;3.65;1.90;;;;;;;35.80;25.75;94131.19;5011937;28;20042;-63
2022/08/02 09:35:35;;;;;;;3.70;1.90;;;;;;;35.48;25.84;94137.59;5017018;28;20050;-62
2022/08/02 09:38:21;;;;;;;2.75;1.90;;;;;;;36.09;25.23;94142.25;4999201;28;20473;-63
2022/08/02 09:40:51;;;;;;;3.00;1.97;;;;;;;34.53;26.78;94145.31;5011704;28;20068;-63
2022/08/02 09:43:19;;;;;;;3.10;1.90;;;;;;;36.47;24.97;94144.88;5011659;28;20053;-63
2022/08/02 09:45:46;;;;;;;3.72;2.00;;;;;;;35.27;26.14;94138.59;5011438;28;20527;-63
2022/08/02 09:48:13;;;;;;;3.67;1.95;;;;;;;35.91;24.73;94136.44;5011392;28;20046;-63
2022/08/02 09:50:41;;;;;;;3.50;2.15;;;;;;;37.54;22.90;94128.03;5011336;28;20042;-66
2022/08/02 09:53:12;;;;;;;4.17;2.10;;;;;;;32.03;29.83;94144.34;5011464;28;20042;-63
2022/08/02 09:55:40;;;;;;;3.53;2.00;;;;;;;35.44;25.34;94122.94;5011142;28;20111;-64
2022/08/02 09:58:20;;;;;;;3.25;2.03;;;;;;;37.46;23.51;94116.66;4997616;28;20046;-66
2022/08/02 10:01:00;;;;;;;3.40;2.00;;;;;;;36.26;23.92;94128.06;5011017;28;20045;-63
2022/08/02 10:03:27;;;;;;;2.80;2.05;;;;;;;37.88;22.65;94123.63;5011882;28;20046;-64
2022/08/02 10:06:03;;;;;;;3.00;1.93;;;;;;;38.32;22.27;94125.69;5010755;28;20296;-63
2022/08/02 10:08:31;;;;;;;3.33;1.90;;;;;;;38.19;22.20;94115.38;5011339;28;20041;-64
2022/08/02 10:10:59;;;;;;;3.45;2.20;;;;;;;33.94;27.23;94123.38;5010939;28;20048;-63
2022/08/02 10:13:34;;;;;;;3.30;1.83;;;;;;;34.69;26.89;94115.50;5011096;28;20104;-64
2022/08/02 10:16:02;;;;;;;4.40;1.90;;;;;;;35.15;25.82;94108.94;5010777;28;20044;-66
2022/08/02 10:18:29;;;;;;;3.00;1.93;;;;;;;34.59;26.57;94120.22;5002638;28;20046;-69
2022/08/02 10:21:12;;;;;;;3.50;1.95;;;;;;;34.64;26.51;94109.97;5009786;28;20388;-64
2022/08/02 10:23:42;;;;;;;3.22;2.00;;;;;;;34.00;27.73;94113.31;5010793;28;20046;-65
2022/08/02 10:26:13;;;;;;;3.60;2.08;;;;;;;35.17;25.32;94112.00;5010843;28;20037;-62
2022/08/02 10:28:41;;;;;;;4.28;1.95;;;;;;;36.36;24.37;94108.94;5010278;28;20038;-64
2022/08/02 10:31:09;;;;;;;4.20;2.43;;;;;;;36.39;24.02;94116.34;5009430;28;20065;-66
2022/08/02 10:33:37;;;;;;;2.55;1.80;;;;;;;37.05;23.32;94109.69;5012836;28;20038;-62
2022/08/02 10:36:07;;;;;;;3.20;1.90;;;;;;;38.32;21.96;94102.75;5013422;28;20513;-63
2022/08/02 10:38:35;;;;;;;3.20;1.85;;;;;;;38.18;21.53;94105.25;5010211;28;20242;-64
2022/08/02 10:41:02;;;;;;;3.38;2.20;;;;;;;35.88;24.70;94094.78;5009640;28;20922;-63
2022/08/02 10:43:35;;;;;;;2.93;1.80;;;;;;;37.91;22.97;94094.56;5010389;28;20046;-63
2022/08/02 10:46:22;;;;;;;3.38;1.90;;;;;;;36.95;23.62;94083.84;5009754;28;21536;-63
2022/08/02 10:49:14;;;;;;;3.15;1.88;;;;;;;35.54;24.88;94087.50;5010219;28;20046;-63
2022/08/02 10:52:01;;;;;;;4.72;2.10;;;;;;;30.63;31.27;94090.03;5009655;28;20591;-63
2022/08/02 10:54:31;;;;;;;4.13;2.10;;;;;;;31.62;30.34;94095.50;5009928;28;20046;-63
2022/08/02 10:57:00;;;;;;;3.60;2.00;;;;;;;32.82;28.86;94079.84;5009844;28;20037;-63
2022/08/02 10:59:35;;;;;;;2.92;1.95;;;;;;;31.62;29.94;94086.97;5010047;28;20038;-63
2022/08/02 11:02:04;;;;;;;4.57;2.28;;;;;;;31.68;30.74;94086.84;5014301;28;21648;-62
2022/08/02 11:04:52;;;;;;;5.03;2.40;;;;;;;32.26;29.37;94084.94;5017155;28;20054;-62
2022/08/02 11:07:30;;;;;;;4.30;2.40;;;;;;;31.29;31.04;94084.88;5008983;28;20136;-63
2022/08/02 11:09:58;;;;;;;3.00;2.10;;;;;;;31.70;30.23;94087.06;5009621;28;20044;-62
2022/08/02 11:12:26;;;;;;;3.28;2.30;;;;;;;30.83;32.16;94085.78;5009704;28;20042;-61
2022/08/02 11:15:05;;;;;;;3.55;2.50;;;;;;;29.89;33.49;94086.97;5009780;28;20037;-61
2022/08/02 11:17:53;;;;;;;4.03;2.35;;;;;;;30.06;33.31;94076.13;5009829;28;20434;-63
2022/08/02 11:20:24;;;;;;;5.95;2.60;;;;;;;30.53;33.03;94074.03;4994094;28;20395;-61
2022/08/02 11:22:55;;;;;;;4.70;2.40;;;;;;;29.15;35.17;94081.59;5009494;28;20046;-62
2022/08/02 11:25:27;;;;;;;4.55;2.40;;;;;;;29.46;34.68;94077.31;5009874;28;20046;-61
2022/08/02 11:28:15;;;;;;;4.20;2.30;;;;;;;31.23;31.83;94067.97;5008013;28;20502;-64
2022/08/02 11:30:41;;;;;;;4.13;2.33;;;;;;;30.57;33.27;94069.56;5008590;28;20127;-62
2022/08/02 11:33:08;;;;;;;4.13;2.40;;;;;;;29.34;35.29;94072.34;5010337;28;20076;-61
2022/08/02 11:35:37;;;;;;;6.63;2.37;;;;;;;28.17;37.17;94068.34;5010279;28;20045;-62
2022/08/02 11:38:20;;;;;;;4.30;2.30;;;;;;;27.42;38.51;94068.66;5009302;28;20932;-61
2022/08/02 11:40:48;;;;;;;4.18;2.20;;;;;;;27.46;38.42;94066.34;5009674;28;20053;-62
2022/08/02 11:43:17;;;;;;;3.10;2.28;;;;;;;26.73;38.95;94070.31;5010126;28;20041;-63
2022/08/02 11:45:45;;;;;;;5.45;2.30;;;;;;;26.22;39.77;94072.47;5009279;28;20042;-64
2022/08/02 11:48:12;;;;;;;2.90;2.00;;;;;;;27.29;37.56;94069.28;5010085;28;20056;-62
2022/08/02 11:50:39;;;;;;;4.15;2.15;;;;;;;27.62;37.04;94061.84;4994276;28;20042;-65
2022/08/02 11:53:13;;;;;;;4.28;2.53;;;;;;;26.82;39.00;94057.97;5009891;28;20140;-61